sensor_id;sensor_type;location;lat;lon;timestamp;P1;durP1;ratioP1;P2;durP2;ratioP2
62687;SDS011;48752;51.056;17.056;2024-02-23T00:01:06;8.15;;;3.55;;
62687;SDS011;48752;51.056;17.056;2024-02-23T00:03:34;5.03;;;3.22;;
62687;SDS011;48752;51.056;17.056;2024-02-23T00:06:02;4.15;;;3.33;;
62687;SDS011;48752;51.056;17.056;2024-02-23T00:08:30;4.32;;;3.20;;
62687;SDS011;48752;51.056;17.056;2024-02-23T00:10:58;4.72;;;2.92;;
62687;SDS011;48752;51.056;17.056;2024-02-23T00:13:23;5.13;;;2.78;;
62687;SDS011;48752;51.056;17.056;2024-02-23T00:15:49;6.25;;;2.72;;
62687;SDS011;48752;51.056;17.056;2024-02-23T00:18:15;3.65;;;2.20;;
62687;SDS011;48752;51.056;17.056;2024-02-23T00:20:42;3.78;;;2.42;;
62687;SDS011;48752;51.056;17.056;2024-02-23T00:23:10;2.78;;;1.85;;
62687;SDS011;48752;51.056;17.056;2024-02-23T00:25:37;3.40;;;1.92;;
62687;SDS011;48752;51.056;17.056;2024-02-23T00:28:13;3.33;;;2.20;;
62687;SDS011;48752;51.056;17.056;2024-02-23T00:30:39;2.75;;;1.85;;
62687;SDS011;48752;51.056;17.056;2024-02-23T00:33:07;1.80;;;1.52;;
62687;SDS011;48752;51.056;17.056;2024-02-23T00:35:35;1.30;;;1.20;;
62687;SDS011;48752;51.056;17.056;2024-02-23T00:38:02;1.90;;;1.23;;
62687;SDS011;48752;51.056;17.056;2024-02-23T00:40:28;1.58;;;1.10;;
62687;SDS011;48752;51.056;17.056;2024-02-23T00:42:53;1.65;;;1.20;;
62687;SDS011;48752;51.056;17.056;2024-02-23T00:45:20;2.05;;;1.20;;
62687;SDS011;48752;51.056;17.056;2024-02-23T00:47:47;1.35;;;1.25;;
62687;SDS011;48752;51.056;17.056;2024-02-23T00:50:15;1.05;;;0.80;;
62687;SDS011;48752;51.056;17.056;2024-02-23T00:52:41;1.42;;;1.00;;
62687;SDS011;48752;51.056;17.056;2024-02-23T00:55:07;1.77;;;1.30;;
62687;SDS011;48752;51.056;17.056;2024-02-23T00:57:35;2.38;;;1.33;;
62687;SDS011;48752;51.056;17.056;2024-02-23T01:00:01;1.50;;;1.02;;
62687;SDS011;48752;51.056;17.056;2024-02-23T01:02:29;3.30;;;1.20;;
62687;SDS011;48752;51.056;17.056;2024-02-23T01:04:55;1.85;;;1.20;;
62687;SDS011;48752;51.056;17.056;2024-02-23T01:07:22;1.23;;;1.13;;
62687;SDS011;48752;51.056;17.056;2024-02-23T01:09:48;2.72;;;1.52;;
62687;SDS011;48752;51.056;17.056;2024-02-23T01:12:14;1.63;;;1.17;;
62687;SDS011;48752;51.056;17.056;2024-02-23T01:14:41;2.25;;;1.33;;
62687;SDS011;48752;51.056;17.056;2024-02-23T01:17:06;1.50;;;1.40;;
62687;SDS011;48752;51.056;17.056;2024-02-23T01:19:33;1.73;;;1.52;;
62687;SDS011;48752;51.056;17.056;2024-02-23T01:21:59;1.50;;;1.40;;
62687;SDS011;48752;51.056;17.056;2024-02-23T01:24:27;1.60;;;1.20;;
62687;SDS011;48752;51.056;17.056;2024-02-23T01:27:00;1.73;;;1.35;;
62687;SDS011;48752;51.056;17.056;2024-02-23T01:29:28;2.30;;;1.80;;
62687;SDS011;48752;51.056;17.056;2024-02-23T01:31:54;3.33;;;1.88;;
62687;SDS011;48752;51.056;17.056;2024-02-23T01:34:22;2.60;;;1.83;;
62687;SDS011;48752;51.056;17.056;2024-02-23T01:36:48;2.13;;;1.75;;
62687;SDS011;48752;51.056;17.056;2024-02-23T01:39:16;2.50;;;1.98;;
62687;SDS011;48752;51.056;17.056;2024-02-23T01:41:41;1.77;;;1.60;;
62687;SDS011;48752;51.056;17.056;2024-02-23T01:44:09;2.55;;;1.80;;
62687;SDS011;48752;51.056;17.056;2024-02-23T01:46:36;2.40;;;2.20;;
62687;SDS011;48752;51.056;17.056;2024-02-23T01:49:17;1.83;;;1.73;;
62687;SDS011;48752;51.056;17.056;2024-02-23T01:51:43;2.80;;;2.05;;
62687;SDS011;48752;51.056;17.056;2024-02-23T01:54:10;1.83;;;1.63;;
62687;SDS011;48752;51.056;17.056;2024-02-23T01:56:50;3.95;;;2.33;;
62687;SDS011;48752;51.056;17.056;2024-02-23T01:59:15;6.82;;;2.78;;
62687;SDS011;48752;51.056;17.056;2024-02-23T02:01:43;2.80;;;2.50;;
62687;SDS011;48752;51.056;17.056;2024-02-23T02:04:13;3.08;;;2.70;;
62687;SDS011;48752;51.056;17.056;2024-02-23T02:06:40;2.63;;;2.42;;
62687;SDS011;48752;51.056;17.056;2024-02-23T02:09:06;5.25;;;2.80;;
62687;SDS011;48752;51.056;17.056;2024-02-23T02:11:34;2.90;;;2.63;;
62687;SDS011;48752;51.056;17.056;2024-02-23T02:13:59;3.05;;;2.75;;
62687;SDS011;48752;51.056;17.056;2024-02-23T02:16:25;3.55;;;3.00;;
62687;SDS011;48752;51.056;17.056;2024-02-23T02:18:52;3.50;;;3.05;;
62687;SDS011;48752;51.056;17.056;2024-02-23T02:21:18;3.92;;;3.40;;
62687;SDS011;48752;51.056;17.056;2024-02-23T02:23:48;4.67;;;3.67;;
62687;SDS011;48752;51.056;17.056;2024-02-23T02:26:16;4.90;;;3.28;;
62687;SDS011;48752;51.056;17.056;2024-02-23T02:28:42;4.70;;;3.40;;
62687;SDS011;48752;51.056;17.056;2024-02-23T02:31:08;4.43;;;3.50;;
62687;SDS011;48752;51.056;17.056;2024-02-23T02:33:34;4.35;;;3.60;;
62687;SDS011;48752;51.056;17.056;2024-02-23T02:36:01;4.50;;;3.80;;
62687;SDS011;48752;51.056;17.056;2024-02-23T02:38:28;5.75;;;4.10;;
62687;SDS011;48752;51.056;17.056;2024-02-23T02:40:54;4.38;;;3.97;;
62687;SDS011;48752;51.056;17.056;2024-02-23T02:43:22;4.95;;;4.15;;
62687;SDS011;48752;51.056;17.056;2024-02-23T02:45:48;4.28;;;3.65;;
62687;SDS011;48752;51.056;17.056;2024-02-23T02:48:14;4.05;;;3.25;;
62687;SDS011;48752;51.056;17.056;2024-02-23T02:50:41;4.38;;;3.70;;
62687;SDS011;48752;51.056;17.056;2024-02-23T02:53:08;4.00;;;2.92;;
62687;SDS011;48752;51.056;17.056;2024-02-23T02:55:33;3.65;;;3.28;;
62687;SDS011;48752;51.056;17.056;2024-02-23T02:58:01;3.40;;;3.10;;
62687;SDS011;48752;51.056;17.056;2024-02-23T03:00:30;3.97;;;3.45;;
62687;SDS011;48752;51.056;17.056;2024-02-23T03:02:57;3.85;;;3.50;;
62687;SDS011;48752;51.056;17.056;2024-02-23T03:05:24;4.00;;;3.42;;
62687;SDS011;48752;51.056;17.056;2024-02-23T03:07:49;3.35;;;3.05;;
62687;SDS011;48752;51.056;17.056;2024-02-23T03:10:16;3.88;;;3.30;;
62687;SDS011;48752;51.056;17.056;2024-02-23T03:12:41;3.22;;;2.92;;
62687;SDS011;48752;51.056;17.056;2024-02-23T03:15:07;3.50;;;3.05;;
62687;SDS011;48752;51.056;17.056;2024-02-23T03:17:34;3.90;;;3.30;;
62687;SDS011;48752;51.056;17.056;2024-02-23T03:20:02;4.07;;;3.40;;
62687;SDS011;48752;51.056;17.056;2024-02-23T03:22:37;5.80;;;3.40;;
62687;SDS011;48752;51.056;17.056;2024-02-23T03:25:04;3.58;;;2.90;;
62687;SDS011;48752;51.056;17.056;2024-02-23T03:27:39;4.72;;;3.35;;
62687;SDS011;48752;51.056;17.056;2024-02-23T03:30:05;3.33;;;3.03;;
62687;SDS011;48752;51.056;17.056;2024-02-23T03:32:34;3.10;;;2.80;;
62687;SDS011;48752;51.056;17.056;2024-02-23T03:35:04;3.53;;;2.80;;
62687;SDS011;48752;51.056;17.056;2024-02-23T03:37:31;4.22;;;2.70;;
62687;SDS011;48752;51.056;17.056;2024-02-23T03:39:56;3.75;;;3.03;;
62687;SDS011;48752;51.056;17.056;2024-02-23T03:42:22;3.25;;;2.70;;
62687;SDS011;48752;51.056;17.056;2024-02-23T03:44:47;3.78;;;2.67;;
62687;SDS011;48752;51.056;17.056;2024-02-23T03:47:15;3.30;;;3.00;;
62687;SDS011;48752;51.056;17.056;2024-02-23T03:49:41;3.20;;;2.70;;
62687;SDS011;48752;51.056;17.056;2024-02-23T03:52:08;4.88;;;3.25;;
62687;SDS011;48752;51.056;17.056;2024-02-23T03:54:34;3.85;;;3.40;;
62687;SDS011;48752;51.056;17.056;2024-02-23T03:57:00;3.88;;;3.03;;
62687;SDS011;48752;51.056;17.056;2024-02-23T03:59:26;3.30;;;3.00;;
62687;SDS011;48752;51.056;17.056;2024-02-23T04:01:52;3.38;;;2.95;;
62687;SDS011;48752;51.056;17.056;2024-02-23T04:04:18;3.17;;;2.75;;
62687;SDS011;48752;51.056;17.056;2024-02-23T04:06:44;4.43;;;2.97;;
62687;SDS011;48752;51.056;17.056;2024-02-23T04:09:24;3.40;;;2.83;;
62687;SDS011;48752;51.056;17.056;2024-02-23T04:11:52;3.42;;;2.95;;
62687;SDS011;48752;51.056;17.056;2024-02-23T04:14:19;3.25;;;2.95;;
62687;SDS011;48752;51.056;17.056;2024-02-23T04:16:47;4.00;;;3.10;;
62687;SDS011;48752;51.056;17.056;2024-02-23T04:19:13;3.72;;;3.10;;
62687;SDS011;48752;51.056;17.056;2024-02-23T04:21:39;3.67;;;3.10;;
62687;SDS011;48752;51.056;17.056;2024-02-23T04:24:05;3.90;;;3.20;;
62687;SDS011;48752;51.056;17.056;2024-02-23T04:26:33;5.53;;;3.22;;
62687;SDS011;48752;51.056;17.056;2024-02-23T04:29:06;3.55;;;2.78;;
62687;SDS011;48752;51.056;17.056;2024-02-23T04:31:36;4.50;;;3.00;;
62687;SDS011;48752;51.056;17.056;2024-02-23T04:34:10;3.65;;;3.03;;
62687;SDS011;48752;51.056;17.056;2024-02-23T04:36:35;3.42;;;3.10;;
62687;SDS011;48752;51.056;17.056;2024-02-23T04:39:01;3.30;;;2.88;;
62687;SDS011;48752;51.056;17.056;2024-02-23T04:41:30;3.75;;;3.42;;
62687;SDS011;48752;51.056;17.056;2024-02-23T04:44:04;5.50;;;3.83;;
62687;SDS011;48752;51.056;17.056;2024-02-23T04:46:30;4.13;;;3.60;;
62687;SDS011;48752;51.056;17.056;2024-02-23T04:48:56;3.67;;;3.38;;
62687;SDS011;48752;51.056;17.056;2024-02-23T04:51:23;4.10;;;3.70;;
62687;SDS011;48752;51.056;17.056;2024-02-23T04:53:49;4.50;;;3.53;;
62687;SDS011;48752;51.056;17.056;2024-02-23T04:56:28;4.68;;;3.42;;
62687;SDS011;48752;51.056;17.056;2024-02-23T04:58:55;4.45;;;3.85;;
62687;SDS011;48752;51.056;17.056;2024-02-23T05:01:22;5.50;;;4.35;;
62687;SDS011;48752;51.056;17.056;2024-02-23T05:03:48;5.30;;;3.65;;
62687;SDS011;48752;51.056;17.056;2024-02-23T05:06:15;4.93;;;4.20;;
62687;SDS011;48752;51.056;17.056;2024-02-23T05:08:40;4.43;;;4.00;;
62687;SDS011;48752;51.056;17.056;2024-02-23T05:11:07;4.60;;;3.78;;
62687;SDS011;48752;51.056;17.056;2024-02-23T05:13:33;4.38;;;3.47;;
62687;SDS011;48752;51.056;17.056;2024-02-23T05:16:00;4.55;;;3.42;;
62687;SDS011;48752;51.056;17.056;2024-02-23T05:18:28;4.72;;;3.90;;
62687;SDS011;48752;51.056;17.056;2024-02-23T05:20:55;5.53;;;3.88;;
62687;SDS011;48752;51.056;17.056;2024-02-23T05:23:21;5.35;;;3.72;;
62687;SDS011;48752;51.056;17.056;2024-02-23T05:25:46;4.57;;;3.90;;
62687;SDS011;48752;51.056;17.056;2024-02-23T05:28:13;4.57;;;3.72;;
62687;SDS011;48752;51.056;17.056;2024-02-23T05:30:39;4.40;;;4.00;;
62687;SDS011;48752;51.056;17.056;2024-02-23T05:33:04;4.60;;;3.97;;
62687;SDS011;48752;51.056;17.056;2024-02-23T05:35:30;5.38;;;4.38;;
62687;SDS011;48752;51.056;17.056;2024-02-23T05:37:55;5.57;;;4.50;;
62687;SDS011;48752;51.056;17.056;2024-02-23T05:40:22;6.00;;;5.07;;
62687;SDS011;48752;51.056;17.056;2024-02-23T05:42:49;4.55;;;4.15;;
62687;SDS011;48752;51.056;17.056;2024-02-23T05:45:17;6.88;;;4.97;;
62687;SDS011;48752;51.056;17.056;2024-02-23T05:47:45;4.60;;;4.05;;
62687;SDS011;48752;51.056;17.056;2024-02-23T05:50:11;3.90;;;3.55;;
62687;SDS011;48752;51.056;17.056;2024-02-23T05:52:38;5.47;;;4.50;;
62687;SDS011;48752;51.056;17.056;2024-02-23T05:55:05;5.55;;;4.25;;
62687;SDS011;48752;51.056;17.056;2024-02-23T05:57:31;4.95;;;4.40;;
62687;SDS011;48752;51.056;17.056;2024-02-23T05:59:58;8.95;;;4.40;;
62687;SDS011;48752;51.056;17.056;2024-02-23T06:02:24;6.10;;;4.55;;
62687;SDS011;48752;51.056;17.056;2024-02-23T06:04:51;6.75;;;4.15;;
62687;SDS011;48752;51.056;17.056;2024-02-23T06:07:18;5.65;;;4.03;;
62687;SDS011;48752;51.056;17.056;2024-02-23T06:09:46;5.60;;;3.88;;
62687;SDS011;48752;51.056;17.056;2024-02-23T06:12:13;4.15;;;3.17;;
62687;SDS011;48752;51.056;17.056;2024-02-23T06:14:40;4.07;;;3.45;;
62687;SDS011;48752;51.056;17.056;2024-02-23T06:17:07;4.40;;;3.20;;
62687;SDS011;48752;51.056;17.056;2024-02-23T06:19:34;6.05;;;2.67;;
62687;SDS011;48752;51.056;17.056;2024-02-23T06:22:14;3.83;;;2.88;;
62687;SDS011;48752;51.056;17.056;2024-02-23T06:24:47;3.47;;;3.00;;
62687;SDS011;48752;51.056;17.056;2024-02-23T06:27:13;4.45;;;2.60;;
62687;SDS011;48752;51.056;17.056;2024-02-23T06:29:40;4.15;;;2.78;;
62687;SDS011;48752;51.056;17.056;2024-02-23T06:32:10;3.83;;;2.30;;
62687;SDS011;48752;51.056;17.056;2024-02-23T06:34:36;4.15;;;2.60;;
62687;SDS011;48752;51.056;17.056;2024-02-23T06:37:02;3.00;;;2.35;;
62687;SDS011;48752;51.056;17.056;2024-02-23T06:39:28;3.85;;;2.20;;
62687;SDS011;48752;51.056;17.056;2024-02-23T06:41:53;4.07;;;2.40;;
62687;SDS011;48752;51.056;17.056;2024-02-23T06:44:19;2.35;;;2.05;;
62687;SDS011;48752;51.056;17.056;2024-02-23T06:46:45;3.67;;;2.15;;
62687;SDS011;48752;51.056;17.056;2024-02-23T06:49:12;2.50;;;2.10;;
62687;SDS011;48752;51.056;17.056;2024-02-23T06:51:38;3.13;;;2.35;;
62687;SDS011;48752;51.056;17.056;2024-02-23T06:54:06;2.58;;;2.35;;
62687;SDS011;48752;51.056;17.056;2024-02-23T06:56:33;2.53;;;2.00;;
62687;SDS011;48752;51.056;17.056;2024-02-23T06:58:59;3.78;;;2.20;;
62687;SDS011;48752;51.056;17.056;2024-02-23T07:01:26;4.20;;;2.22;;
62687;SDS011;48752;51.056;17.056;2024-02-23T07:03:53;3.10;;;1.77;;
62687;SDS011;48752;51.056;17.056;2024-02-23T07:06:20;3.20;;;1.80;;
62687;SDS011;48752;51.056;17.056;2024-02-23T07:08:58;2.88;;;2.20;;
62687;SDS011;48752;51.056;17.056;2024-02-23T07:11:30;2.75;;;1.73;;
62687;SDS011;48752;51.056;17.056;2024-02-23T07:13:55;2.25;;;1.50;;
62687;SDS011;48752;51.056;17.056;2024-02-23T07:16:21;3.40;;;1.80;;
62687;SDS011;48752;51.056;17.056;2024-02-23T07:18:50;2.30;;;1.48;;
62687;SDS011;48752;51.056;17.056;2024-02-23T07:21:18;3.00;;;1.40;;
62687;SDS011;48752;51.056;17.056;2024-02-23T07:23:43;3.55;;;1.85;;
62687;SDS011;48752;51.056;17.056;2024-02-23T07:26:09;2.03;;;1.50;;
62687;SDS011;48752;51.056;17.056;2024-02-23T07:28:35;2.30;;;1.40;;
62687;SDS011;48752;51.056;17.056;2024-02-23T07:31:02;2.20;;;1.42;;
62687;SDS011;48752;51.056;17.056;2024-02-23T07:33:27;1.90;;;1.30;;
62687;SDS011;48752;51.056;17.056;2024-02-23T07:35:53;2.30;;;1.50;;
62687;SDS011;48752;51.056;17.056;2024-02-23T07:38:18;3.20;;;1.50;;
62687;SDS011;48752;51.056;17.056;2024-02-23T07:40:44;3.38;;;1.48;;
62687;SDS011;48752;51.056;17.056;2024-02-23T07:43:11;2.00;;;1.65;;
62687;SDS011;48752;51.056;17.056;2024-02-23T07:45:37;1.48;;;1.20;;
62687;SDS011;48752;51.056;17.056;2024-02-23T07:48:03;2.80;;;1.70;;
62687;SDS011;48752;51.056;17.056;2024-02-23T07:50:29;1.58;;;1.42;;
62687;SDS011;48752;51.056;17.056;2024-02-23T07:52:57;1.30;;;1.20;;
62687;SDS011;48752;51.056;17.056;2024-02-23T07:55:22;2.75;;;1.42;;
62687;SDS011;48752;51.056;17.056;2024-02-23T07:57:50;3.10;;;1.50;;
62687;SDS011;48752;51.056;17.056;2024-02-23T08:00:17;3.20;;;1.40;;
62687;SDS011;48752;51.056;17.056;2024-02-23T08:02:43;2.17;;;1.58;;
62687;SDS011;48752;51.056;17.056;2024-02-23T08:05:08;2.22;;;1.58;;
62687;SDS011;48752;51.056;17.056;2024-02-23T08:07:35;3.53;;;2.00;;
62687;SDS011;48752;51.056;17.056;2024-02-23T08:10:00;1.70;;;1.60;;
62687;SDS011;48752;51.056;17.056;2024-02-23T08:12:28;2.70;;;1.70;;
62687;SDS011;48752;51.056;17.056;2024-02-23T08:14:57;2.42;;;1.73;;
62687;SDS011;48752;51.056;17.056;2024-02-23T08:17:24;2.30;;;1.90;;
62687;SDS011;48752;51.056;17.056;2024-02-23T08:19:51;2.80;;;1.42;;
62687;SDS011;48752;51.056;17.056;2024-02-23T08:22:18;2.83;;;1.70;;
62687;SDS011;48752;51.056;17.056;2024-02-23T08:24:43;4.68;;;2.13;;
62687;SDS011;48752;51.056;17.056;2024-02-23T08:27:09;3.95;;;1.95;;
62687;SDS011;48752;51.056;17.056;2024-02-23T08:29:37;4.30;;;2.35;;
62687;SDS011;48752;51.056;17.056;2024-02-23T08:32:04;6.45;;;2.30;;
62687;SDS011;48752;51.056;17.056;2024-02-23T08:34:32;11.80;;;2.65;;
62687;SDS011;48752;51.056;17.056;2024-02-23T08:36:59;6.47;;;2.80;;
62687;SDS011;48752;51.056;17.056;2024-02-23T08:39:27;4.90;;;2.70;;
62687;SDS011;48752;51.056;17.056;2024-02-23T08:41:53;3.85;;;2.97;;
62687;SDS011;48752;51.056;17.056;2024-02-23T08:44:20;5.00;;;2.70;;
62687;SDS011;48752;51.056;17.056;2024-02-23T08:46:47;4.68;;;2.97;;
62687;SDS011;48752;51.056;17.056;2024-02-23T08:49:21;5.53;;;3.20;;
62687;SDS011;48752;51.056;17.056;2024-02-23T08:51:47;4.60;;;3.35;;
62687;SDS011;48752;51.056;17.056;2024-02-23T08:54:13;6.10;;;3.10;;
62687;SDS011;48752;51.056;17.056;2024-02-23T08:56:41;4.40;;;2.22;;
62687;SDS011;48752;51.056;17.056;2024-02-23T08:59:09;4.47;;;1.20;;
62687;SDS011;48752;51.056;17.056;2024-02-23T09:01:36;5.45;;;1.20;;
62687;SDS011;48752;51.056;17.056;2024-02-23T09:04:02;2.30;;;0.93;;
62687;SDS011;48752;51.056;17.056;2024-02-23T09:06:29;2.05;;;0.80;;
62687;SDS011;48752;51.056;17.056;2024-02-23T09:08:55;1.23;;;0.82;;
62687;SDS011;48752;51.056;17.056;2024-02-23T09:11:22;0.85;;;0.73;;
62687;SDS011;48752;51.056;17.056;2024-02-23T09:13:48;2.88;;;0.60;;
62687;SDS011;48752;51.056;17.056;2024-02-23T09:16:13;1.67;;;0.80;;
62687;SDS011;48752;51.056;17.056;2024-02-23T09:18:40;3.25;;;0.70;;
62687;SDS011;48752;51.056;17.056;2024-02-23T09:21:07;2.95;;;0.82;;
62687;SDS011;48752;51.056;17.056;2024-02-23T09:23:32;6.22;;;1.10;;
62687;SDS011;48752;51.056;17.056;2024-02-23T09:25:59;4.88;;;0.80;;
62687;SDS011;48752;51.056;17.056;2024-02-23T09:28:36;2.05;;;0.75;;
62687;SDS011;48752;51.056;17.056;2024-02-23T09:31:01;3.08;;;0.70;;
62687;SDS011;48752;51.056;17.056;2024-02-23T09:33:28;2.70;;;0.80;;
62687;SDS011;48752;51.056;17.056;2024-02-23T09:35:54;2.92;;;0.90;;
62687;SDS011;48752;51.056;17.056;2024-02-23T09:38:20;1.35;;;0.65;;
62687;SDS011;48752;51.056;17.056;2024-02-23T09:40:45;0.90;;;0.63;;
62687;SDS011;48752;51.056;17.056;2024-02-23T09:43:12;4.72;;;0.95;;
62687;SDS011;48752;51.056;17.056;2024-02-23T09:45:53;2.47;;;0.73;;
62687;SDS011;48752;51.056;17.056;2024-02-23T09:48:19;2.03;;;1.00;;
62687;SDS011;48752;51.056;17.056;2024-02-23T09:50:46;5.90;;;0.77;;
62687;SDS011;48752;51.056;17.056;2024-02-23T09:53:13;2.03;;;1.00;;
62687;SDS011;48752;51.056;17.056;2024-02-23T09:55:42;6.22;;;1.23;;
62687;SDS011;48752;51.056;17.056;2024-02-23T09:58:09;4.45;;;1.00;;
62687;SDS011;48752;51.056;17.056;2024-02-23T10:00:54;1.42;;;0.65;;
62687;SDS011;48752;51.056;17.056;2024-02-23T10:03:22;7.07;;;0.95;;
62687;SDS011;48752;51.056;17.056;2024-02-23T10:05:58;1.77;;;1.17;;
62687;SDS011;48752;51.056;17.056;2024-02-23T10:08:27;1.50;;;0.93;;
62687;SDS011;48752;51.056;17.056;2024-02-23T10:11:00;1.90;;;0.70;;
62687;SDS011;48752;51.056;17.056;2024-02-23T10:13:31;4.30;;;1.17;;
62687;SDS011;48752;51.056;17.056;2024-02-23T10:15:56;4.25;;;1.25;;
62687;SDS011;48752;51.056;17.056;2024-02-23T10:18:24;4.50;;;1.23;;
62687;SDS011;48752;51.056;17.056;2024-02-23T10:20:51;2.63;;;1.10;;
62687;SDS011;48752;51.056;17.056;2024-02-23T10:23:18;3.05;;;1.10;;
62687;SDS011;48752;51.056;17.056;2024-02-23T10:25:46;2.58;;;0.93;;
62687;SDS011;48752;51.056;17.056;2024-02-23T10:28:19;4.40;;;1.05;;
62687;SDS011;48752;51.056;17.056;2024-02-23T10:30:47;8.23;;;1.25;;
62687;SDS011;48752;51.056;17.056;2024-02-23T10:33:14;1.65;;;0.80;;
62687;SDS011;48752;51.056;17.056;2024-02-23T10:35:40;2.20;;;0.82;;
62687;SDS011;48752;51.056;17.056;2024-02-23T10:38:07;3.17;;;1.00;;
62687;SDS011;48752;51.056;17.056;2024-02-23T10:40:38;4.43;;;1.00;;
62687;SDS011;48752;51.056;17.056;2024-02-23T10:43:07;1.13;;;0.80;;
62687;SDS011;48752;51.056;17.056;2024-02-23T10:46:13;1.33;;;0.80;;
62687;SDS011;48752;51.056;17.056;2024-02-23T10:48:43;2.92;;;1.08;;
62687;SDS011;48752;51.056;17.056;2024-02-23T10:51:14;1.27;;;0.90;;
62687;SDS011;48752;51.056;17.056;2024-02-23T10:53:41;2.50;;;1.10;;
62687;SDS011;48752;51.056;17.056;2024-02-23T10:56:18;9.05;;;1.85;;
62687;SDS011;48752;51.056;17.056;2024-02-23T10:58:45;7.30;;;1.70;;
62687;SDS011;48752;51.056;17.056;2024-02-23T11:01:32;6.20;;;1.80;;
62687;SDS011;48752;51.056;17.056;2024-02-23T11:03:58;3.08;;;1.25;;
62687;SDS011;48752;51.056;17.056;2024-02-23T11:06:27;2.15;;;1.00;;
62687;SDS011;48752;51.056;17.056;2024-02-23T11:09:04;3.42;;;0.95;;
62687;SDS011;48752;51.056;17.056;2024-02-23T11:11:32;2.63;;;0.80;;
62687;SDS011;48752;51.056;17.056;2024-02-23T11:13:58;1.88;;;1.10;;
62687;SDS011;48752;51.056;17.056;2024-02-23T11:16:31;7.28;;;1.30;;
62687;SDS011;48752;51.056;17.056;2024-02-23T11:19:03;4.13;;;1.30;;
62687;SDS011;48752;51.056;17.056;2024-02-23T11:21:34;2.80;;;1.35;;
62687;SDS011;48752;51.056;17.056;2024-02-23T11:24:07;1.48;;;0.90;;
62687;SDS011;48752;51.056;17.056;2024-02-23T11:26:36;1.45;;;0.80;;
62687;SDS011;48752;51.056;17.056;2024-02-23T11:29:09;3.50;;;0.90;;
62687;SDS011;48752;51.056;17.056;2024-02-23T11:31:36;2.15;;;0.82;;
62687;SDS011;48752;51.056;17.056;2024-02-23T11:34:10;3.13;;;1.00;;
62687;SDS011;48752;51.056;17.056;2024-02-23T11:36:53;1.80;;;0.90;;
62687;SDS011;48752;51.056;17.056;2024-02-23T11:39:19;6.63;;;0.95;;
62687;SDS011;48752;51.056;17.056;2024-02-23T11:41:47;1.90;;;0.75;;
62687;SDS011;48752;51.056;17.056;2024-02-23T11:44:14;1.15;;;0.95;;
62687;SDS011;48752;51.056;17.056;2024-02-23T11:46:43;6.20;;;0.75;;
62687;SDS011;48752;51.056;17.056;2024-02-23T11:49:10;2.75;;;0.90;;
62687;SDS011;48752;51.056;17.056;2024-02-23T11:51:37;2.65;;;0.73;;
62687;SDS011;48752;51.056;17.056;2024-02-23T11:54:03;0.70;;;0.70;;
62687;SDS011;48752;51.056;17.056;2024-02-23T11:56:30;1.75;;;0.95;;
62687;SDS011;48752;51.056;17.056;2024-02-23T11:58:57;1.60;;;0.77;;
62687;SDS011;48752;51.056;17.056;2024-02-23T12:01:25;1.15;;;0.80;;
62687;SDS011;48752;51.056;17.056;2024-02-23T12:03:54;3.58;;;0.70;;
62687;SDS011;48752;51.056;17.056;2024-02-23T12:06:21;2.08;;;0.75;;
62687;SDS011;48752;51.056;17.056;2024-02-23T12:08:47;5.25;;;0.90;;
62687;SDS011;48752;51.056;17.056;2024-02-23T12:11:15;1.77;;;1.00;;
62687;SDS011;48752;51.056;17.056;2024-02-23T12:13:41;1.40;;;1.10;;
62687;SDS011;48752;51.056;17.056;2024-02-23T12:16:07;2.55;;;0.80;;
62687;SDS011;48752;51.056;17.056;2024-02-23T12:18:41;1.98;;;0.90;;
62687;SDS011;48752;51.056;17.056;2024-02-23T12:21:08;2.75;;;0.85;;
62687;SDS011;48752;51.056;17.056;2024-02-23T12:23:38;1.30;;;0.70;;
62687;SDS011;48752;51.056;17.056;2024-02-23T12:26:06;2.10;;;0.88;;
62687;SDS011;48752;51.056;17.056;2024-02-23T12:28:33;2.22;;;1.13;;
62687;SDS011;48752;51.056;17.056;2024-02-23T12:30:59;4.18;;;1.80;;
62687;SDS011;48752;51.056;17.056;2024-02-23T12:33:33;3.17;;;1.00;;
62687;SDS011;48752;51.056;17.056;2024-02-23T12:36:02;1.30;;;0.88;;
62687;SDS011;48752;51.056;17.056;2024-02-23T12:38:29;2.53;;;1.48;;
62687;SDS011;48752;51.056;17.056;2024-02-23T12:40:55;2.97;;;1.45;;
62687;SDS011;48752;51.056;17.056;2024-02-23T12:43:21;4.20;;;1.60;;
62687;SDS011;48752;51.056;17.056;2024-02-23T12:45:50;2.83;;;1.50;;
62687;SDS011;48752;51.056;17.056;2024-02-23T12:48:23;3.72;;;1.50;;
62687;SDS011;48752;51.056;17.056;2024-02-23T12:50:50;1.58;;;1.30;;
62687;SDS011;48752;51.056;17.056;2024-02-23T12:53:35;5.60;;;1.23;;
62687;SDS011;48752;51.056;17.056;2024-02-23T12:56:02;1.40;;;1.00;;
62687;SDS011;48752;51.056;17.056;2024-02-23T12:58:30;4.38;;;1.10;;
62687;SDS011;48752;51.056;17.056;2024-02-23T13:00:56;3.70;;;1.73;;
62687;SDS011;48752;51.056;17.056;2024-02-23T13:03:23;4.50;;;2.40;;
62687;SDS011;48752;51.056;17.056;2024-02-23T13:05:51;11.75;;;2.70;;
62687;SDS011;48752;51.056;17.056;2024-02-23T13:08:17;8.20;;;2.53;;
62687;SDS011;48752;51.056;17.056;2024-02-23T13:10:44;3.22;;;1.90;;
62687;SDS011;48752;51.056;17.056;2024-02-23T13:13:10;4.72;;;1.80;;
62687;SDS011;48752;51.056;17.056;2024-02-23T13:15:37;2.95;;;1.52;;
62687;SDS011;48752;51.056;17.056;2024-02-23T13:18:04;4.38;;;1.67;;
62687;SDS011;48752;51.056;17.056;2024-02-23T13:20:32;3.35;;;1.58;;
62687;SDS011;48752;51.056;17.056;2024-02-23T13:25:35;7.90;;;2.40;;
62687;SDS011;48752;51.056;17.056;2024-02-23T13:28:01;3.55;;;2.10;;
62687;SDS011;48752;51.056;17.056;2024-02-23T13:30:27;2.72;;;1.80;;
62687;SDS011;48752;51.056;17.056;2024-02-23T13:32:55;1.92;;;1.48;;
62687;SDS011;48752;51.056;17.056;2024-02-23T13:35:21;2.83;;;1.73;;
62687;SDS011;48752;51.056;17.056;2024-02-23T13:37:51;6.57;;;2.38;;
62687;SDS011;48752;51.056;17.056;2024-02-23T13:40:25;5.35;;;2.47;;
62687;SDS011;48752;51.056;17.056;2024-02-23T13:42:51;3.00;;;1.80;;
62687;SDS011;48752;51.056;17.056;2024-02-23T13:45:19;3.55;;;2.00;;
62687;SDS011;48752;51.056;17.056;2024-02-23T13:47:55;6.93;;;2.22;;
62687;SDS011;48752;51.056;17.056;2024-02-23T13:50:23;4.28;;;1.70;;
62687;SDS011;48752;51.056;17.056;2024-02-23T13:52:50;4.72;;;1.73;;
62687;SDS011;48752;51.056;17.056;2024-02-23T13:55:16;6.38;;;1.70;;
62687;SDS011;48752;51.056;17.056;2024-02-23T13:57:46;7.05;;;2.08;;
62687;SDS011;48752;51.056;17.056;2024-02-23T14:00:18;8.60;;;2.20;;
62687;SDS011;48752;51.056;17.056;2024-02-23T14:02:47;7.63;;;2.00;;
62687;SDS011;48752;51.056;17.056;2024-02-23T14:05:14;4.88;;;2.30;;
62687;SDS011;48752;51.056;17.056;2024-02-23T14:07:41;5.18;;;1.95;;
62687;SDS011;48752;51.056;17.056;2024-02-23T14:10:09;6.43;;;2.30;;
62687;SDS011;48752;51.056;17.056;2024-02-23T14:12:35;7.65;;;2.08;;
62687;SDS011;48752;51.056;17.056;2024-02-23T14:15:03;5.65;;;3.05;;
62687;SDS011;48752;51.056;17.056;2024-02-23T14:17:39;15.07;;;3.25;;
62687;SDS011;48752;51.056;17.056;2024-02-23T14:20:07;7.50;;;2.40;;
62687;SDS011;48752;51.056;17.056;2024-02-23T14:22:40;6.32;;;2.72;;
62687;SDS011;48752;51.056;17.056;2024-02-23T14:25:06;5.72;;;2.38;;
62687;SDS011;48752;51.056;17.056;2024-02-23T14:27:34;4.03;;;1.80;;
62687;SDS011;48752;51.056;17.056;2024-02-23T14:29:59;3.95;;;1.65;;
62687;SDS011;48752;51.056;17.056;2024-02-23T14:32:25;3.63;;;1.83;;
62687;SDS011;48752;51.056;17.056;2024-02-23T14:34:50;8.68;;;2.10;;
62687;SDS011;48752;51.056;17.056;2024-02-23T14:37:16;3.20;;;1.80;;
62687;SDS011;48752;51.056;17.056;2024-02-23T14:39:41;4.88;;;2.38;;